Crooked Lake, Minnesota
Current Conditions -  °F | °C
As of 12:16 AM on Monday 26 Jan 2015 (Local Time) from KXVG Reporting Station
Overcast Overcast  
Wind Chill: 13°   Ceiling: 7500
Heat Index: 23°   Visibility: 10mi
Dew Point: 19°   Wind: 9mph
Humidity: 86%   Direction: 180°S
Pressure: 29.77"   Gusts: 16mph
Location:  46.8459°N, 93.8976°W
Report Text: KXVG 260616Z AUTO 18008G14KT 10SM OVC075 M05/M07 A2977 RMK AO2
Loading
Personal Weather Stations






























Interactive Weather Map New forecast layout! Learn more

10-Day Weather Forecast

Advertisements
Track Severe Weather on mobile